Time;durP1;ratioP1;P1;durP2;ratioP2;P2;SDS_P1;SDS_P2;PMS_P1;PMS_P2;Temp;Humidity;BMP_temperature;BMP_pressure;BME280_temperature;BME280_humidity;BME280_pressure;Samples;Min_cycle;Max_cycle;Signal;HPM_P1;HPM_P2
2023/05/05 00:00:11;;;;;;;;;;;;;;;22.44;51.90;97379.92;625595;227;65865;-59
2023/05/05 00:02:39;;;;;;;;;;;;;;;22.43;50.38;97378.33;625562;227;63143;-59
2023/05/05 00:05:07;;;;;;;;;;;;;;;22.44;51.63;97373.77;625609;227;64931;-59
2023/05/05 00:07:35;;;;;;;;;;;;;;;22.42;50.76;97373.23;625666;227;65427;-59
2023/05/05 00:10:02;;;;;;;;;;;;;;;22.43;53.04;97377.53;624372;227;65204;-59
2023/05/05 00:12:30;;;;;;;;;;;;;;;22.42;50.90;97383.95;623453;227;63094;-59
2023/05/05 00:14:57;;;;;;;;;;;;;;;22.42;51.05;97381.27;623442;227;63293;-58
2023/05/05 00:17:25;;;;;;;;;;;;;;;22.41;52.30;97380.47;623434;227;65116;-58
2023/05/05 00:19:52;;;;;;;;;;;;;;;22.41;51.27;97383.16;623510;227;62752;-58
2023/05/05 00:22:20;;;;;;;;;;;;;;;22.41;51.55;97385.03;623462;227;62920;-58
2023/05/05 00:24:49;;;;;;;;;;;;;;;22.40;52.47;97378.87;623419;227;46423;-58
2023/05/05 00:27:17;;;;;;;;;;;;;;;22.40;52.94;97381.55;623405;227;62896;-58
2023/05/05 00:29:44;;;;;;;;;;;;;;;22.40;52.21;97381.55;623400;227;64971;-58
2023/05/05 00:32:12;;;;;;;;;;;;;;;22.38;50.87;97378.34;623503;227;65140;-59
2023/05/05 00:34:39;;;;;;;;;;;;;;;22.38;51.05;97381.81;623447;227;62643;-59
2023/05/05 00:37:06;;;;;;;;;;;;;;;22.38;51.92;97375.66;623434;227;65506;-58
2023/05/05 00:39:34;;;;;;;;;;;;;;;22.37;52.76;97380.22;623445;227;65027;-58
2023/05/05 00:42:01;;;;;;;;;;;;;;;22.37;51.89;97379.39;623405;227;64826;-58
2023/05/05 00:44:36;;;;;;;;;;;;;;;22.37;52.71;97379.39;623494;227;65432;-59
2023/05/05 00:47:04;;;;;;;;;;;;;;;22.36;52.21;97377.80;623367;227;65090;-60
2023/05/05 00:49:33;;;;;;;;;;;;;;;22.36;51.28;97383.16;623436;227;64927;-59
2023/05/05 00:52:00;;;;;;;;;;;;;;;22.35;53.28;97377.00;623409;227;65449;-58
2023/05/05 00:54:28;;;;;;;;;;;;;;;22.34;51.67;97380.77;623471;227;65216;-58
2023/05/05 00:56:55;;;;;;;;;;;;;;;22.34;53.05;97378.09;623463;227;64913;-59
2023/05/05 00:59:23;;;;;;;;;;;;;;;22.34;51.66;97375.41;623493;227;66427;-58
2023/05/05 01:01:50;;;;;;;;;;;;;;;22.34;51.78;97371.91;623487;227;66118;-58
2023/05/05 01:04:18;;;;;;;;;;;;;;;22.33;51.61;97371.11;623450;227;65021;-58
2023/05/05 01:06:53;;;;;;;;;;;;;;;22.33;51.77;97372.99;623458;227;66356;-58
2023/05/05 01:09:28;;;;;;;;;;;;;;;22.32;54.67;97369.52;620774;227;62846;-59
2023/05/05 01:12:07;;;;;;;;;;;;;;;22.32;51.07;97366.84;623524;227;62995;-60
2023/05/05 01:14:39;;;;;;;;;;;;;;;22.32;52.03;97366.05;622782;227;63054;-58
2023/05/05 01:17:14;;;;;;;;;;;;;;;22.31;51.63;97361.73;623467;227;63355;-58
2023/05/05 01:19:58;;;;;;;;;;;;;;;22.30;52.06;97365.50;623450;227;64878;-59
2023/05/05 01:22:28;;;;;;;;;;;;;;;22.29;54.40;97367.38;623444;227;65645;-59
2023/05/05 01:25:13;;;;;;;;;;;;;;;22.29;53.08;97363.87;623144;227;64793;-59
2023/05/05 01:27:43;;;;;;;;;;;;;;;22.28;51.72;97360.41;623454;227;65104;-59
2023/05/05 01:30:28;;;;;;;;;;;;;;;22.28;52.95;97360.41;623516;227;62984;-59
2023/05/05 01:32:57;;;;;;;;;;;;;;;22.27;51.41;97356.14;623525;227;65329;-59
2023/05/05 01:35:32;;;;;;;;;;;;;;;22.26;51.95;97351.87;623128;227;63235;-59
2023/05/05 01:38:07;;;;;;;;;;;;;;;22.26;52.79;97351.87;623399;227;65160;-61
2023/05/05 01:40:41;;;;;;;;;;;;;;;22.25;53.30;97347.56;623473;227;66010;-59
2023/05/05 01:43:10;;;;;;;;;;;;;;;22.25;53.46;97350.24;623442;227;64872;-59
2023/05/05 01:45:38;;;;;;;;;;;;;;;22.26;53.21;97351.04;623470;227;65717;-59
2023/05/05 01:48:07;;;;;;;;;;;;;;;22.24;51.86;97353.20;623516;227;65383;-59
2023/05/05 01:50:35;;;;;;;;;;;;;;;22.23;52.53;97341.67;623461;227;65086;-58
2023/05/05 01:53:04;;;;;;;;;;;;;;;22.24;53.48;97347.85;623434;227;65453;-58
2023/05/05 01:55:32;;;;;;;;;;;;;;;22.23;52.18;97341.67;623479;227;63153;-58
2023/05/05 01:58:01;;;;;;;;;;;;;;;22.23;53.14;97338.99;623442;227;65086;-59
2023/05/05 02:00:30;;;;;;;;;;;;;;;22.22;52.53;97344.64;623512;227;65606;-59
2023/05/05 02:02:58;;;;;;;;;;;;;;;22.23;53.36;97346.23;623439;227;65231;-59
2023/05/05 02:05:26;;;;;;;;;;;;;;;22.22;53.94;97337.41;623423;227;64922;-59
2023/05/05 02:07:55;;;;;;;;;;;;;;;22.22;53.49;97333.92;623450;227;65518;-59
2023/05/05 02:10:23;;;;;;;;;;;;;;;22.21;54.50;97338.48;623404;227;65348;-60
2023/05/05 02:12:52;;;;;;;;;;;;;;;22.21;54.37;97332.30;623501;227;63024;-60
2023/05/05 02:15:21;;;;;;;;;;;;;;;22.20;53.87;97331.51;623461;227;65739;-59
2023/05/05 02:17:51;;;;;;;;;;;;;;;22.21;54.34;97332.30;623449;227;65253;-59
2023/05/05 02:20:20;;;;;;;;;;;;;;;22.20;54.55;97330.71;623454;227;65087;-59
2023/05/05 02:22:48;;;;;;;;;;;;;;;22.20;53.08;97338.74;623448;227;66028;-59
2023/05/05 02:25:21;;;;;;;;;;;;;;;22.19;53.42;97331.80;623459;227;64958;-59
2023/05/05 02:27:46;;;;;;;;;;;;;;;22.19;53.70;97335.27;623271;227;65269;-59
2023/05/05 02:30:15;;;;;;;;;;;;;;;22.18;53.11;97328.32;623446;227;65688;-59
2023/05/05 02:32:44;;;;;;;;;;;;;;;22.17;55.00;97332.81;623420;227;63522;-59
2023/05/05 02:35:26;;;;;;;;;;;;;;;22.17;54.29;97326.67;623431;227;64861;-59
2023/05/05 02:38:00;;;;;;;;;;;;;;;22.17;53.14;97323.99;623399;227;65450;-58
2023/05/05 02:40:30;;;;;;;;;;;;;;;22.16;51.99;97323.20;623472;227;65016;-58
2023/05/05 02:42:59;;;;;;;;;;;;;;;22.16;54.37;97325.08;623472;227;62401;-58
2023/05/05 02:45:28;;;;;;;;;;;;;;;22.14;52.08;97328.02;623440;227;43859;-59
2023/05/05 02:47:56;;;;;;;;;;;;;;;22.15;53.58;97326.95;623449;227;65006;-60
2023/05/05 02:50:24;;;;;;;;;;;;;;;22.15;53.49;97329.63;623481;227;65758;-60
2023/05/05 02:52:57;;;;;;;;;;;;;;;22.13;54.11;97331.77;623275;227;47059;-60
2023/05/05 02:55:27;;;;;;;;;;;;;;;22.13;53.27;97334.45;623472;227;65266;-59
2023/05/05 02:58:02;;;;;;;;;;;;;;;22.13;53.42;97325.63;623290;227;62982;-59
2023/05/05 03:00:44;;;;;;;;;;;;;;;22.12;54.13;97327.47;623443;227;66599;-60
2023/05/05 03:03:15;;;;;;;;;;;;;;;22.11;52.02;97328.55;612796;227;65575;-59
2023/05/05 03:05:48;;;;;;;;;;;;;;;22.12;54.02;97329.34;618354;227;66485;-61
2023/05/05 03:08:17;;;;;;;;;;;;;;;22.12;53.74;97334.70;622019;227;65614;-59
2023/05/05 03:11:03;;;;;;;;;;;;;;;22.11;54.39;97333.11;625261;227;65697;-59
2023/05/05 03:13:32;;;;;;;;;;;;;;;22.11;53.86;97333.11;625669;227;62940;-60
2023/05/05 03:16:05;;;;;;;;;;;;;;;22.10;54.38;97326.16;625619;227;65502;-60
2023/05/05 03:18:31;;;;;;;;;;;;;;;22.10;53.53;97331.52;625517;227;63004;-59
2023/05/05 03:21:07;;;;;;;;;;;;;;;22.09;53.11;97333.37;625606;227;64886;-60
2023/05/05 03:23:36;;;;;;;;;;;;;;;22.08;53.54;97334.45;625579;227;62712;-59
2023/05/05 03:26:05;;;;;;;;;;;;;;;22.08;54.86;97339.80;625604;227;46983;-59
2023/05/05 03:28:35;;;;;;;;;;;;;;;22.07;52.42;97332.86;625650;227;43471;-59
2023/05/05 03:31:04;;;;;;;;;;;;;;;22.07;54.84;97330.18;625497;227;43333;-59
2023/05/05 03:33:32;;;;;;;;;;;;;;;22.07;53.64;97337.38;625619;227;62594;-59
2023/05/05 03:36:00;;;;;;;;;;;;;;;22.08;54.11;97333.66;625611;227;65958;-59
2023/05/05 03:38:28;;;;;;;;;;;;;;;22.05;53.75;97337.67;625630;227;66048;-59
2023/05/05 03:40:55;;;;;;;;;;;;;;;22.06;54.08;97341.94;625695;227;64584;-59
2023/05/05 03:43:25;;;;;;;;;;;;;;;22.06;53.97;97341.14;625589;227;43953;-60
2023/05/05 03:45:52;;;;;;;;;;;;;;;22.06;53.48;97346.50;625629;227;63910;-60
2023/05/05 03:48:20;;;;;;;;;;;;;;;22.06;55.21;97354.53;625610;227;63829;-59
2023/05/05 03:50:48;;;;;;;;;;;;;;;22.06;55.22;97343.82;625610;227;65096;-59
2023/05/05 03:53:17;;;;;;;;;;;;;;;22.04;52.98;97349.42;625672;227;65824;-59
2023/05/05 03:55:44;;;;;;;;;;;;;;;22.05;56.09;97347.58;625595;227;65576;-59
2023/05/05 03:58:12;;;;;;;;;;;;;;;22.03;55.15;97353.19;625616;227;65077;-59
2023/05/05 04:00:39;;;;;;;;;;;;;;;22.04;54.48;97352.11;625630;227;65055;-59
2023/05/05 04:03:08;;;;;;;;;;;;;;;22.02;53.55;97356.95;625608;227;63845;-59
2023/05/05 04:05:36;;;;;;;;;;;;;;;22.03;55.54;97355.06;625672;227;65280;-59
2023/05/05 04:08:04;;;;;;;;;;;;;;;22.02;54.51;97351.59;625670;227;65551;-59
2023/05/05 04:10:32;;;;;;;;;;;;;;;22.02;52.69;97356.16;625479;227;63159;-60
2023/05/05 04:13:00;;;;;;;;;;;;;;;22.03;55.73;97355.06;625583;227;65467;-59
2023/05/05 04:15:28;;;;;;;;;;;;;;;22.02;55.17;97356.16;625607;227;65754;-59
2023/05/05 04:17:56;;;;;;;;;;;;;;;22.01;54.13;97359.88;625615;227;65301;-61
2023/05/05 04:20:24;;;;;;;;;;;;;;;22.01;54.53;97354.53;625646;227;62498;-62
2023/05/05 04:22:52;;;;;;;;;;;;;;;22.00;53.31;97358.28;625585;227;65172;-60
2023/05/05 04:25:19;;;;;;;;;;;;;;;22.00;53.44;97368.98;625603;227;65802;-60
2023/05/05 04:27:47;;;;;;;;;;;;;;;22.00;53.96;97364.44;625616;227;63728;-60
2023/05/05 04:30:15;;;;;;;;;;;;;;;21.98;53.24;97366.57;625657;227;66009;-60
2023/05/05 04:32:43;;;;;;;;;;;;;;;21.99;54.03;97367.36;625676;227;63214;-60
2023/05/05 04:35:11;;;;;;;;;;;;;;;21.99;53.73;97364.69;625599;227;63073;-60
2023/05/05 04:37:38;;;;;;;;;;;;;;;22.00;55.42;97355.61;625549;227;66058;-61
2023/05/05 04:40:07;;;;;;;;;;;;;;;21.99;53.19;97365.52;625651;227;65902;-60
2023/05/05 04:42:35;;;;;;;;;;;;;;;22.00;53.60;97368.98;625623;227;65101;-60
2023/05/05 04:45:03;;;;;;;;;;;;;;;22.00;53.04;97369.78;625642;227;66155;-60
2023/05/05 04:47:31;;;;;;;;;;;;;;;22.00;54.03;97368.98;625651;227;65165;-60
2023/05/05 04:49:58;;;;;;;;;;;;;;;22.00;53.66;97364.44;625611;227;62648;-60
2023/05/05 04:52:26;;;;;;;;;;;;;;;22.00;53.80;97361.76;625606;227;66381;-60
2023/05/05 04:54:54;;;;;;;;;;;;;;;22.02;53.26;97374.88;625639;227;65625;-61
2023/05/05 04:57:21;;;;;;;;;;;;;;;22.01;53.88;97371.37;625675;227;65112;-60
2023/05/05 04:59:49;;;;;;;;;;;;;;;22.02;54.22;97366.86;625637;227;63055;-60
2023/05/05 05:02:17;;;;;;;;;;;;;;;22.01;55.08;97374.05;625573;227;62859;-60
2023/05/05 05:04:44;;;;;;;;;;;;;;;22.02;54.63;97372.20;625611;227;62794;-60
2023/05/05 05:07:13;;;;;;;;;;;;;;;22.03;55.97;97376.48;625631;227;63398;-60
2023/05/05 05:09:43;;;;;;;;;;;;;;;22.03;54.19;97376.48;625588;227;65469;-60
2023/05/05 05:12:10;;;;;;;;;;;;;;;22.03;54.86;97377.27;625680;227;62889;-60
2023/05/05 05:14:38;;;;;;;;;;;;;;;22.03;54.63;97382.62;625623;227;65560;-60
2023/05/05 05:17:06;;;;;;;;;;;;;;;22.04;53.68;97378.07;625576;227;65218;-60
2023/05/05 05:19:34;;;;;;;;;;;;;;;22.04;52.30;97380.75;625602;227;63297;-61
2023/05/05 05:22:02;;;;;;;;;;;;;;;22.04;55.08;97376.19;625591;227;65757;-60
2023/05/05 05:24:30;;;;;;;;;;;;;;;22.05;54.32;97385.84;625599;227;62549;-60
2023/05/05 05:26:58;;;;;;;;;;;;;;;22.05;54.49;97385.05;625478;227;65676;-60
2023/05/05 05:29:26;;;;;;;;;;;;;;;22.06;55.24;97381.29;625599;227;66301;-60
2023/05/05 05:31:54;;;;;;;;;;;;;;;22.06;56.16;97382.09;625601;227;65109;-60
2023/05/05 05:34:22;;;;;;;;;;;;;;;22.05;54.43;97379.70;625634;227;62489;-60
2023/05/05 05:36:50;;;;;;;;;;;;;;;22.07;55.52;97370.33;625682;227;66088;-60
2023/05/05 05:39:17;;;;;;;;;;;;;;;22.07;55.80;97374.86;625591;227;65805;-60
2023/05/05 05:41:45;;;;;;;;;;;;;;;22.07;54.79;97375.68;625609;227;65931;-60
2023/05/05 05:44:13;;;;;;;;;;;;;;;22.07;54.49;97381.03;625599;227;62720;-60
2023/05/05 05:46:41;;;;;;;;;;;;;;;22.09;53.61;97378.07;625599;227;65832;-60
2023/05/05 05:49:09;;;;;;;;;;;;;;;22.09;54.40;97380.75;625674;227;65684;-60
2023/05/05 05:51:36;;;;;;;;;;;;;;;22.09;55.29;97380.75;625566;227;66476;-60
2023/05/05 05:54:04;;;;;;;;;;;;;;;22.08;55.17;97379.95;625630;227;62737;-60
2023/05/05 05:56:32;;;;;;;;;;;;;;;22.08;54.45;97385.30;625598;227;64971;-60
2023/05/05 05:59:00;;;;;;;;;;;;;;;22.09;53.27;97380.75;625613;227;66280;-60
2023/05/05 06:01:28;;;;;;;;;;;;;;;22.09;54.96;97384.22;625599;227;63073;-60
2023/05/05 06:03:57;;;;;;;;;;;;;;;22.10;55.24;97385.05;625596;227;65628;-61
2023/05/05 06:06:26;;;;;;;;;;;;;;;22.10;54.91;97385.84;625610;227;65715;-60
2023/05/05 06:08:55;;;;;;;;;;;;;;;22.11;50.84;97378.61;624848;227;64955;-61
2023/05/05 06:11:23;;;;;;;;;;;;;;;22.13;50.29;97381.83;625576;227;65931;-62
2023/05/05 06:13:51;;;;;;;;;;;;;;;22.16;52.36;97382.09;625609;227;63159;-60
2023/05/05 06:16:18;;;;;;;;;;;;;;;22.17;53.20;97385.56;625512;227;63517;-60
2023/05/05 06:18:47;;;;;;;;;;;;;;;22.14;53.09;97375.39;625440;227;64859;-61
2023/05/05 06:21:14;;;;;;;;;;;;;;;22.15;53.63;97383.17;625570;227;63284;-60
2023/05/05 06:23:42;;;;;;;;;;;;;;;22.15;52.98;97385.02;625520;227;66095;-62
2023/05/05 06:26:10;;;;;;;;;;;;;;;22.15;53.02;97385.02;625582;227;65165;-60
2023/05/05 06:28:38;;;;;;;;;;;;;;;22.16;54.20;97386.64;625608;227;65354;-61
2023/05/05 06:31:05;;;;;;;;;;;;;;;22.16;51.47;97389.32;625570;227;62900;-61
2023/05/05 06:33:33;;;;;;;;;;;;;;;22.15;53.55;97385.84;625616;227;62889;-61
2023/05/05 06:36:00;;;;;;;;;;;;;;;22.17;54.14;97385.56;627882;225;63940;-60
2023/05/05 06:38:28;;;;;;;;;;;;;;;22.16;51.28;97384.77;630075;225;65281;-61
2023/05/05 06:40:57;;;;;;;;;;;;;;;22.17;53.66;97391.71;630214;225;65035;-62
2023/05/05 06:43:24;;;;;;;;;;;;;;;22.19;53.23;97390.69;629799;225;65743;-61
2023/05/05 06:45:54;;;;;;;;;;;;;;;22.18;53.38;97397.92;629802;224;43396;-60
2023/05/05 06:48:21;;;;;;;;;;;;;;;22.18;53.08;97392.57;630177;225;65020;-61
2023/05/05 06:50:48;;;;;;;;;;;;;;;22.19;53.78;97390.69;629021;224;63315;-61
2023/05/05 06:53:16;;;;;;;;;;;;;;;22.19;54.32;97386.13;625545;225;65406;-61
2023/05/05 06:55:45;;;;;;;;;;;;;;;22.19;54.60;97383.45;630109;225;65304;-61
2023/05/05 06:58:12;;;;;;;;;;;;;;;22.19;53.45;97388.81;630153;225;65472;-61
2023/05/05 07:00:40;;;;;;;;;;;;;;;22.20;54.84;97387.72;630175;225;65257;-60
2023/05/05 07:03:08;;;;;;;;;;;;;;;22.19;54.38;97388.81;630217;225;65012;-61
2023/05/05 07:05:35;;;;;;;;;;;;;;;22.19;52.65;97391.48;630105;225;66415;-61
2023/05/05 07:08:03;;;;;;;;;;;;;;;22.21;53.99;97396.55;630213;225;65164;-61
2023/05/05 07:10:33;;;;;;;;;;;;;;;22.21;54.53;97401.91;627724;225;65039;-60
2023/05/05 07:13:01;;;;;;;;;;;;;;;22.20;54.32;97390.40;626915;226;65528;-61
2023/05/05 07:15:28;;;;;;;;;;;;;;;22.21;53.30;97401.91;626971;226;65096;-61
2023/05/05 07:17:56;;;;;;;;;;;;;;;22.22;54.25;97406.20;626947;226;64983;-60
2023/05/05 07:20:23;;;;;;;;;;;;;;;22.21;54.91;97401.91;626995;226;65446;-61
2023/05/05 07:22:51;;;;;;;;;;;;;;;22.21;53.37;97399.23;626989;226;62901;-60
2023/05/05 07:25:18;;;;;;;;;;;;;;;22.21;53.24;97394.70;626892;226;65187;-62
2023/05/05 07:27:46;;;;;;;;;;;;;;;22.20;51.87;97398.43;626949;226;65404;-61
2023/05/05 07:30:13;;;;;;;;;;;;;;;22.22;52.57;97398.17;626955;226;65483;-61
2023/05/05 07:32:42;;;;;;;;;;;;;;;22.22;54.76;97404.33;626941;226;65022;-61
2023/05/05 07:35:10;;;;;;;;;;;;;;;22.22;52.20;97407.00;626978;226;63306;-61
2023/05/05 07:37:37;;;;;;;;;;;;;;;22.23;53.71;97399.77;626993;226;64863;-61
2023/05/05 07:40:05;;;;;;;;;;;;;;;22.22;54.92;97398.17;626912;226;65159;-62
2023/05/05 07:42:33;;;;;;;;;;;;;;;22.23;55.28;97397.89;626952;226;65438;-61
2023/05/05 07:45:00;;;;;;;;;;;;;;;22.23;54.96;97399.77;626948;226;64933;-61
2023/05/05 07:47:27;;;;;;;;;;;;;;;22.23;54.74;97403.25;627031;226;62804;-61
2023/05/05 07:49:56;;;;;;;;;;;;;;;22.22;52.05;97398.17;626961;226;64941;-61
2023/05/05 07:52:24;;;;;;;;;;;;;;;22.23;55.01;97403.25;627007;226;64554;-61
2023/05/05 07:54:51;;;;;;;;;;;;;;;22.22;55.09;97404.33;626868;226;64850;-61
2023/05/05 07:57:19;;;;;;;;;;;;;;;22.23;55.56;97407.80;627016;226;63175;-61
2023/05/05 07:59:46;;;;;;;;;;;;;;;22.22;54.60;97409.69;627040;226;64908;-60
2023/05/05 08:02:14;;;;;;;;;;;;;;;22.23;54.68;97410.48;626941;226;64838;-61
2023/05/05 08:04:42;;;;;;;;;;;;;;;22.22;54.16;97409.69;626995;226;64980;-61
2023/05/05 08:07:10;;;;;;;;;;;;;;;22.23;52.83;97407.80;626956;226;64898;-61
2023/05/05 08:09:37;;;;;;;;;;;;;;;22.22;54.82;97407.00;626003;226;65058;-61
2023/05/05 08:12:07;;;;;;;;;;;;;;;22.22;54.68;97415.03;624763;227;65459;-61
2023/05/05 08:14:34;;;;;;;;;;;;;;;22.22;55.19;97408.89;624664;227;64891;-62
2023/05/05 08:17:02;;;;;;;;;;;;;;;22.22;52.28;97409.69;624634;227;63030;-62
2023/05/05 08:19:29;;;;;;;;;;;;;;;22.21;53.21;97410.77;624690;227;63495;-61
2023/05/05 08:21:57;;;;;;;;;;;;;;;22.21;53.04;97413.44;624700;227;65728;-61
2023/05/05 08:24:24;;;;;;;;;;;;;;;22.22;54.84;97406.20;624682;227;65024;-62
2023/05/05 08:26:52;;;;;;;;;;;;;;;22.22;54.63;97406.20;624623;227;65421;-61
2023/05/05 08:29:19;;;;;;;;;;;;;;;22.21;55.68;97409.94;624664;227;65029;-61
2023/05/05 08:31:47;;;;;;;;;;;;;;;22.19;52.30;97404.88;624696;227;65049;-61
2023/05/05 08:34:14;;;;;;;;;;;;;;;22.21;54.35;97400.05;624692;227;62952;-61
2023/05/05 08:36:42;;;;;;;;;;;;;;;22.21;54.72;97396.55;624658;227;62658;-60
2023/05/05 08:39:09;;;;;;;;;;;;;;;22.21;55.58;97401.91;624682;227;63631;-61
2023/05/05 08:41:37;;;;;;;;;;;;;;;22.21;55.38;97407.27;624723;227;65403;-61
2023/05/05 08:44:04;;;;;;;;;;;;;;;22.20;55.91;97406.46;624632;227;65595;-61
2023/05/05 08:46:35;;;;;;;;;;;;;;;22.20;55.12;97402.98;624592;227;45825;-61
2023/05/05 08:49:04;;;;;;;;;;;;;;;22.20;53.96;97405.67;624699;227;65722;-61
2023/05/05 08:51:33;;;;;;;;;;;;;;;22.20;54.38;97401.11;624722;227;65104;-61
2023/05/05 08:54:02;;;;;;;;;;;;;;;22.19;53.22;97404.88;624572;225;65040;-60
2023/05/05 08:56:33;;;;;;;;;;;;;;;22.19;54.35;97404.88;624619;225;65500;-61
2023/05/05 08:59:02;;;;;;;;;;;;;;;22.19;54.51;97406.75;624649;227;65468;-61
2023/05/05 09:01:30;;;;;;;;;;;;;;;22.19;55.37;97404.07;624714;227;65143;-61
2023/05/05 09:03:58;;;;;;;;;;;;;;;22.18;55.87;97403.28;624733;227;65421;-61
2023/05/05 09:06:26;;;;;;;;;;;;;;;22.17;52.22;97407.77;624561;227;63940;-61
2023/05/05 09:08:54;;;;;;;;;;;;;;;22.18;54.15;97408.63;624669;226;63805;-61
2023/05/05 09:11:22;;;;;;;;;;;;;;;22.17;53.89;97407.77;626978;226;63636;-61
2023/05/05 09:13:49;;;;;;;;;;;;;;;22.17;53.73;97415.00;626914;226;63205;-61
2023/05/05 09:16:17;;;;;;;;;;;;;;;22.15;51.96;97407.27;626991;226;64987;-61
2023/05/05 09:18:44;;;;;;;;;;;;;;;22.16;55.15;97411.53;626981;226;65406;-61
2023/05/05 09:21:20;;;;;;;;;;;;;;;22.16;53.65;97400.82;626818;226;63080;-60
2023/05/05 09:24:04;;;;;;;;;;;;;;;22.16;54.08;97402.70;626852;225;65024;-61
2023/05/05 09:26:36;;;;;;;;;;;;;;;22.15;52.75;97404.58;626449;226;63283;-60
2023/05/05 09:29:04;;;;;;;;;;;;;;;22.15;53.64;97407.27;626260;225;63061;-60
2023/05/05 09:31:33;;;;;;;;;;;;;;;22.15;52.70;97403.76;626955;226;66531;-60
2023/05/05 09:34:03;;;;;;;;;;;;;;;22.13;53.00;97411.27;626905;226;65717;-60
2023/05/05 09:36:43;;;;;;;;;;;;;;;22.14;53.94;97407.52;626949;226;65466;-62
2023/05/05 09:39:10;;;;;;;;;;;;;;;22.13;52.48;97397.89;626988;226;65071;-61
2023/05/05 09:41:39;;;;;;;;;;;;;;;22.13;52.99;97400.56;626900;226;65510;-62
2023/05/05 09:44:06;;;;;;;;;;;;;;;22.13;53.20;97389.86;626985;226;63029;-61
2023/05/05 09:46:34;;;;;;;;;;;;;;;22.13;54.32;97389.86;626981;226;63000;-61
2023/05/05 09:49:16;;;;;;;;;;;;;;;22.12;53.35;97388.23;626954;226;65670;-61
2023/05/05 09:51:47;;;;;;;;;;;;;;;22.11;51.62;97387.44;627040;226;64985;-60
2023/05/05 09:54:25;;;;;;;;;;;;;;;22.11;53.65;97382.09;626951;226;65219;-60
2023/05/05 09:56:52;;;;;;;;;;;;;;;22.10;53.27;97385.05;626932;226;65700;-59
2023/05/05 09:59:20;;;;;;;;;;;;;;;22.09;51.54;97386.90;626962;226;65583;-59
2023/05/05 10:01:48;;;;;;;;;;;;;;;22.11;52.93;97386.64;626864;226;63024;-60
2023/05/05 10:04:30;;;;;;;;;;;;;;;22.10;51.79;97382.38;627007;226;65394;-59
2023/05/05 10:06:58;;;;;;;;;;;;;;;22.09;52.59;97388.78;626752;226;66456;-59
2023/05/05 10:09:27;;;;;;;;;;;;;;;22.10;51.75;97382.38;626919;226;65125;-59
2023/05/05 10:11:55;;;;;;;;;;;;;;;22.09;53.17;97383.42;626995;226;63222;-59
2023/05/05 10:14:24;;;;;;;;;;;;;;;22.09;52.90;97378.07;626957;226;65187;-58
2023/05/05 10:16:53;;;;;;;;;;;;;;;22.08;52.30;97381.83;626956;226;65070;-59
2023/05/05 10:19:21;;;;;;;;;;;;;;;22.08;53.74;97374.59;626984;226;63182;-59
2023/05/05 10:21:52;;;;;;;;;;;;;;;22.08;50.64;97376.48;627003;226;65249;-59
2023/05/05 10:24:37;;;;;;;;;;;;;;;22.07;51.94;97370.33;626925;226;63085;-58
2023/05/05 10:27:10;;;;;;;;;;;;;;;22.07;52.44;97380.20;626975;226;65895;-59
2023/05/05 10:29:51;;;;;;;;;;;;;;;22.06;52.05;97374.05;626842;225;65300;-59
2023/05/05 10:32:23;;;;;;;;;;;;;;;22.05;50.75;97377.81;626893;226;65016;-59
2023/05/05 10:34:52;;;;;;;;;;;;;;;22.08;52.83;97376.48;626917;225;63270;-60
2023/05/05 10:37:21;;;;;;;;;;;;;;;22.08;52.33;97365.77;626911;226;63115;-59
2023/05/05 10:39:50;;;;;;;;;;;;;;;22.07;53.08;97369.50;626780;226;62960;-60
2023/05/05 10:42:19;;;;;;;;;;;;;;;22.07;54.36;97369.50;626850;226;65395;-60
2023/05/05 10:44:48;;;;;;;;;;;;;;;22.07;56.52;97367.66;626923;226;65232;-59
2023/05/05 10:47:17;;;;;;;;;;;;;;;22.07;53.78;97369.50;627024;226;65093;-59
2023/05/05 10:49:49;;;;;;;;;;;;;;;22.06;54.33;97366.03;626917;226;65378;-59
2023/05/05 10:52:37;;;;;;;;;;;;;;;22.06;53.22;97368.70;626671;225;63213;-59
2023/05/05 10:55:09;;;;;;;;;;;;;;;22.06;54.34;97358.00;626942;226;63025;-59
2023/05/05 10:57:42;;;;;;;;;;;;;;;22.06;55.42;97368.70;626858;226;47917;-59
2023/05/05 11:00:10;;;;;;;;;;;;;;;22.05;53.71;97368.98;626926;226;65094;-59
2023/05/05 11:02:38;;;;;;;;;;;;;;;22.05;53.90;97356.41;626986;226;65167;-59
2023/05/05 11:05:13;;;;;;;;;;;;;;;22.05;53.83;97364.44;626954;226;63001;-59
2023/05/05 11:07:39;;;;;;;;;;;;;;;22.05;54.15;97360.96;626867;225;65019;-59
2023/05/05 11:10:08;;;;;;;;;;;;;;;22.05;54.73;97355.61;625620;226;64976;-59
2023/05/05 11:12:56;;;;;;;;;;;;;;;22.05;53.02;97356.41;624688;227;65661;-59
2023/05/05 11:15:25;;;;;;;;;;;;;;;22.06;55.15;97351.85;624585;227;65596;-60
2023/05/05 11:17:57;;;;;;;;;;;;;;;22.04;54.43;97348.63;624761;227;65056;-59
2023/05/05 11:20:42;;;;;;;;;;;;;;;22.05;52.50;97350.26;624682;227;63304;-60
2023/05/05 11:23:11;;;;;;;;;;;;;;;22.06;53.93;97346.50;624700;227;65387;-60
2023/05/05 11:25:40;;;;;;;;;;;;;;;22.05;52.62;97344.91;624672;227;65103;-60
2023/05/05 11:28:12;;;;;;;;;;;;;;;22.05;52.73;97342.23;624596;227;65503;-60
2023/05/05 11:30:57;;;;;;;;;;;;;;;22.06;54.45;97341.14;624691;227;65233;-59
2023/05/05 11:33:28;;;;;;;;;;;;;;;22.07;50.34;97342.73;624738;227;62975;-60
2023/05/05 11:35:56;;;;;;;;;;;;;;;22.10;53.46;97337.67;624628;227;65094;-59
2023/05/05 11:38:37;;;;;;;;;;;;;;;22.12;52.61;97338.17;624655;227;65128;-59
2023/05/05 11:41:23;;;;;;;;;;;;;;;22.14;53.40;97333.36;624665;227;65026;-59
2023/05/05 11:43:52;;;;;;;;;;;;;;;22.18;53.90;97328.32;624658;227;65813;-59
2023/05/05 11:46:19;;;;;;;;;;;;;;;22.20;54.37;97331.51;624378;225;65362;-59
2023/05/05 11:48:48;;;;;;;;;;;;;;;22.23;53.02;97324.81;624551;227;65092;-60
2023/05/05 11:51:16;;;;;;;;;;;;;;;22.26;54.09;97317.06;624714;227;65195;-59
2023/05/05 11:53:45;;;;;;;;;;;;;;;22.28;53.19;97314.89;624672;227;65159;-60
2023/05/05 11:56:22;;;;;;;;;;;;;;;22.31;53.18;97316.23;624401;225;62655;-60
2023/05/05 11:58:46;;;;;;;;;;;;;;;22.34;53.31;97321.86;624348;225;65150;-59
2023/05/05 12:01:14;;;;;;;;;;;;;;;22.36;53.37;97311.66;624665;227;64942;-59
2023/05/05 12:03:44;;;;;;;;;;;;;;;22.38;52.45;97306.05;624616;227;65078;-60
2023/05/05 12:06:12;;;;;;;;;;;;;;;22.39;52.49;97303.08;624683;227;65145;-59
2023/05/05 12:08:40;;;;;;;;;;;;;;;22.43;52.85;97302.55;624578;227;64949;-60
2023/05/05 12:11:10;;;;;;;;;;;;;;;22.45;53.01;97300.38;624678;227;45001;-59
2023/05/05 12:13:38;;;;;;;;;;;;;;;22.47;52.65;97303.59;624680;227;64918;-59
2023/05/05 12:16:10;;;;;;;;;;;;;;;22.48;52.77;97299.83;624671;227;64892;-61
2023/05/05 12:18:37;;;;;;;;;;;;;;;22.49;52.60;97296.09;624437;225;63045;-59
2023/05/05 12:21:15;;;;;;;;;;;;;;;22.50;51.83;97293.13;624667;227;65106;-61
2023/05/05 12:23:43;;;;;;;;;;;;;;;22.52;52.36;97288.31;624697;227;63791;-61
2023/05/05 12:26:29;;;;;;;;;;;;;;;22.53;51.97;97289.11;624556;227;63741;-59
2023/05/05 12:28:54;;;;;;;;;;;;;;;22.55;52.36;97278.92;624116;225;65399;-60
2023/05/05 12:31:21;;;;;;;;;;;;;;;22.56;53.04;97281.34;624659;227;65431;-60
2023/05/05 12:33:50;;;;;;;;;;;;;;;22.57;52.03;97271.42;624727;227;65080;-60
2023/05/05 12:36:18;;;;;;;;;;;;;;;22.59;51.99;97272.75;624697;227;65390;-60
2023/05/05 12:38:45;;;;;;;;;;;;;;;22.61;52.19;97270.58;624591;227;65259;-60
2023/05/05 12:41:14;;;;;;;;;;;;;;;22.64;51.99;97265.75;624666;227;65056;-61
2023/05/05 12:43:42;;;;;;;;;;;;;;;22.66;52.47;97268.97;624349;226;65718;-62
2023/05/05 12:46:12;;;;;;;;;;;;;;;22.66;52.41;97267.09;624748;225;65241;-61
2023/05/05 12:48:42;;;;;;;;;;;;;;;22.68;52.42;97264.14;624686;227;62953;-61
2023/05/05 12:51:11;;;;;;;;;;;;;;;22.69;51.53;97269.21;624628;227;65183;-60
2023/05/05 12:53:38;;;;;;;;;;;;;;;22.71;52.51;97260.91;624672;227;63176;-60
2023/05/05 12:56:08;;;;;;;;;;;;;;;22.73;52.64;97261.45;624669;227;65107;-60
2023/05/05 12:58:48;;;;;;;;;;;;;;;22.74;52.24;97250.44;624292;227;65870;-60